Time;durP1;ratioP1;P1;durP2;ratioP2;P2;SDS_P1;SDS_P2;PMS_P1;PMS_P2;Temp;Humidity;BMP_temperature;BMP_pressure;BME280_temperature;BME280_humidity;BME280_pressure;Samples;Min_cycle;Max_cycle;Signal;HPM_P1;HPM_P2
2023/03/05 00:02:05;;;;;;;18.00;8.73;;;;;;;;;;5028049;28;20038;-49
2023/03/05 00:04:31;;;;;;;17.85;8.13;;;;;;;;;;5028068;28;20636;-50
2023/03/05 00:06:56;;;;;;;15.77;7.57;;;;;;;;;;5027598;28;20036;-50
2023/03/05 00:09:21;;;;;;;22.60;8.40;;;;;;;;;;5027815;28;20089;-50
2023/03/05 00:11:46;;;;;;;15.90;7.13;;;;;;;;;;5027832;28;20026;-50
2023/03/05 00:14:12;;;;;;;13.15;7.60;;;;;;;;;;5026264;28;20397;-50
2023/03/05 00:16:37;;;;;;;14.73;7.35;;;;;;;;;;5027465;28;20036;-47
2023/03/05 00:19:03;;;;;;;15.75;6.97;;;;;;;;;;5027361;28;20104;-49
2023/03/05 00:21:36;;;;;;;14.88;7.22;;;;;;;;;;5027193;28;20045;-50
2023/03/05 00:24:03;;;;;;;18.35;8.52;;;;;;;;;;5027465;28;20256;-50
2023/03/05 00:26:29;;;;;;;18.83;8.15;;;;;;;;;;5027273;28;20033;-48
2023/03/05 00:28:55;;;;;;;18.90;8.27;;;;;;;;;;5027393;28;20080;-48
2023/03/05 00:31:22;;;;;;;15.48;7.90;;;;;;;;;;5027106;28;20026;-47
2023/03/05 00:33:54;;;;;;;18.58;7.55;;;;;;;;;;5027452;28;20021;-48
2023/03/05 00:36:19;;;;;;;23.20;8.48;;;;;;;;;;5027259;28;20021;-50
2023/03/05 00:38:44;;;;;;;18.80;7.43;;;;;;;;;;5027157;28;20445;-48
2023/03/05 00:41:10;;;;;;;19.85;8.63;;;;;;;;;;5026925;28;20571;-51
2023/03/05 00:43:35;;;;;;;17.20;9.25;;;;;;;;;;5026803;28;20531;-49
2023/03/05 00:46:00;;;;;;;17.92;8.25;;;;;;;;;;5026881;28;20053;-50
2023/03/05 00:48:26;;;;;;;18.27;8.05;;;;;;;;;;5027341;28;20082;-49
2023/03/05 00:50:51;;;;;;;19.95;7.60;;;;;;;;;;5027060;28;20025;-49
2023/03/05 00:53:16;;;;;;;16.02;8.02;;;;;;;;;;5026751;28;20124;-46
2023/03/05 00:55:41;;;;;;;17.27;7.30;;;;;;;;;;5026868;28;20076;-48
2023/03/05 00:58:07;;;;;;;16.92;7.65;;;;;;;;;;5027002;28;20055;-53
2023/03/05 01:00:32;;;;;;;15.85;7.38;;;;;;;;;;5027020;28;20437;-50
2023/03/05 01:02:57;;;;;;;15.40;8.38;;;;;;;;;;5026369;28;20028;-48
2023/03/05 01:05:23;;;;;;;15.20;6.95;;;;;;;;;;5027116;28;20021;-48
2023/03/05 01:07:51;;;;;;;20.90;7.55;;;;;;;;;;5026301;28;20021;-51
2023/03/05 01:10:16;;;;;;;20.20;8.05;;;;;;;;;;5026493;28;20029;-49
2023/03/05 01:12:41;;;;;;;15.40;7.47;;;;;;;;;;5023808;28;20037;-47
2023/03/05 01:15:07;;;;;;;16.00;7.32;;;;;;;;;;5026350;28;20508;-48
2023/03/05 01:17:33;;;;;;;20.27;8.40;;;;;;;;;;5026486;28;20028;-49
2023/03/05 01:19:58;;;;;;;21.05;8.98;;;;;;;;;;5025807;28;20501;-48
2023/03/05 01:22:24;;;;;;;18.83;8.30;;;;;;;;;;5026326;28;20329;-48
2023/03/05 01:24:49;;;;;;;24.20;8.27;;;;;;;;;;5026181;28;20127;-48
2023/03/05 01:27:14;;;;;;;16.98;7.70;;;;;;;;;;5026205;28;20030;-48
2023/03/05 01:29:39;;;;;;;17.98;8.85;;;;;;;;;;5026299;28;20384;-49
2023/03/05 01:32:05;;;;;;;18.98;8.25;;;;;;;;;;5026473;28;20124;-49
2023/03/05 01:34:30;;;;;;;16.13;8.60;;;;;;;;;;5026054;28;20049;-50
2023/03/05 01:36:55;;;;;;;22.98;9.43;;;;;;;;;;5026080;28;20068;-49
2023/03/05 01:39:21;;;;;;;18.45;9.38;;;;;;;;;;5025285;28;20504;-48
2023/03/05 01:41:46;;;;;;;22.50;8.55;;;;;;;;;;5025827;28;20022;-47
2023/03/05 01:44:25;;;;;;;18.85;8.57;;;;;;;;;;5026144;28;20033;-48
2023/03/05 01:46:50;;;;;;;21.60;8.88;;;;;;;;;;5024313;28;20124;-51
2023/03/05 01:49:18;;;;;;;16.83;8.68;;;;;;;;;;5025627;28;20105;-51
2023/03/05 01:51:46;;;;;;;22.40;9.38;;;;;;;;;;5025704;28;20013;-48
2023/03/05 01:54:13;;;;;;;16.65;8.00;;;;;;;;;;5025549;28;20140;-47
2023/03/05 01:56:39;;;;;;;18.65;8.90;;;;;;;;;;5025352;28;20509;-50
2023/03/05 01:59:04;;;;;;;19.38;8.88;;;;;;;;;;5025265;28;20660;-47
2023/03/05 02:01:32;;;;;;;21.33;9.25;;;;;;;;;;5025760;28;20032;-50
2023/03/05 02:03:57;;;;;;;19.85;9.38;;;;;;;;;;5026224;28;20072;-51
2023/03/05 02:06:22;;;;;;;18.90;8.32;;;;;;;;;;5026409;28;20429;-50
2023/03/05 02:08:48;;;;;;;20.80;9.25;;;;;;;;;;5026457;28;20126;-47
2023/03/05 02:11:13;;;;;;;21.13;9.77;;;;;;;;;;5026240;28;20025;-48
2023/03/05 02:13:39;;;;;;;23.95;8.90;;;;;;;;;;5026191;28;20037;-48
2023/03/05 02:16:05;;;;;;;18.95;8.90;;;;;;;;;;5026551;28;20045;-48
2023/03/05 02:18:30;;;;;;;23.35;9.38;;;;;;;;;;5026409;28;20072;-50
2023/03/05 02:20:56;;;;;;;19.40;9.02;;;;;;;;;;5025206;28;20436;-50
2023/03/05 02:23:22;;;;;;;18.65;9.18;;;;;;;;;;5025591;28;20075;-50
2023/03/05 02:25:48;;;;;;;21.10;9.00;;;;;;;;;;5025566;28;20104;-47
2023/03/05 02:28:19;;;;;;;19.73;8.98;;;;;;;;;;5025636;28;20100;-52
2023/03/05 02:30:44;;;;;;;23.23;9.35;;;;;;;;;;5025601;28;20371;-47
2023/03/05 02:33:10;;;;;;;20.80;9.82;;;;;;;;;;5025375;28;20398;-50
2023/03/05 02:35:35;;;;;;;21.38;9.80;;;;;;;;;;5023867;28;20112;-49
2023/03/05 02:38:00;;;;;;;22.33;10.35;;;;;;;;;;5025527;28;20105;-50
2023/03/05 02:40:26;;;;;;;17.35;9.15;;;;;;;;;;5025552;28;20056;-49
2023/03/05 02:42:52;;;;;;;21.13;9.70;;;;;;;;;;5025311;28;20079;-51
2023/03/05 02:45:17;;;;;;;19.73;8.80;;;;;;;;;;5025805;28;20021;-48
2023/03/05 02:47:43;;;;;;;25.20;10.60;;;;;;;;;;5025185;28;20033;-52
2023/03/05 02:50:09;;;;;;;21.63;9.45;;;;;;;;;;5025172;28;20029;-49
2023/03/05 02:52:34;;;;;;;22.23;9.82;;;;;;;;;;5027255;28;20484;-49
2023/03/05 02:55:00;;;;;;;20.38;8.90;;;;;;;;;;5029105;28;20057;-51
2023/03/05 02:57:25;;;;;;;20.23;9.60;;;;;;;;;;5026361;28;20030;-50
2023/03/05 02:59:51;;;;;;;19.48;8.70;;;;;;;;;;5029007;28;20033;-53
2023/03/05 03:02:17;;;;;;;20.40;10.15;;;;;;;;;;5029347;28;20033;-47
2023/03/05 03:04:42;;;;;;;18.45;9.80;;;;;;;;;;5029121;28;20487;-49
2023/03/05 03:07:08;;;;;;;20.42;9.80;;;;;;;;;;5027411;28;20033;-49
2023/03/05 03:09:34;;;;;;;21.90;10.45;;;;;;;;;;5029336;28;20053;-47
2023/03/05 03:12:00;;;;;;;23.48;9.60;;;;;;;;;;5028919;28;20432;-48
2023/03/05 03:14:25;;;;;;;23.60;9.43;;;;;;;;;;5028866;28;20036;-47
2023/03/05 03:16:50;;;;;;;22.02;9.90;;;;;;;;;;5028577;28;20248;-48
2023/03/05 03:19:16;;;;;;;24.70;10.07;;;;;;;;;;5028751;28;20026;-48
2023/03/05 03:21:41;;;;;;;27.25;9.35;;;;;;;;;;5028701;28;20148;-47
2023/03/05 03:24:06;;;;;;;26.40;10.77;;;;;;;;;;5028543;28;20384;-49
2023/03/05 03:26:32;;;;;;;23.83;10.55;;;;;;;;;;5028775;28;20079;-50
2023/03/05 03:28:57;;;;;;;25.23;9.88;;;;;;;;;;5028198;28;20056;-50
2023/03/05 03:31:23;;;;;;;31.85;10.57;;;;;;;;;;5028373;28;20025;-50
2023/03/05 03:33:48;;;;;;;21.73;9.55;;;;;;;;;;5028407;28;20029;-48
2023/03/05 03:36:13;;;;;;;20.23;9.52;;;;;;;;;;5028308;28;20028;-49
2023/03/05 03:38:39;;;;;;;19.73;9.20;;;;;;;;;;5028324;28;20502;-50
2023/03/05 03:41:05;;;;;;;25.58;10.27;;;;;;;;;;5028089;28;20397;-50
2023/03/05 03:43:31;;;;;;;23.20;9.85;;;;;;;;;;5028373;28;20037;-47
2023/03/05 03:45:56;;;;;;;28.55;9.90;;;;;;;;;;5028069;28;20381;-49
2023/03/05 03:48:21;;;;;;;22.15;10.20;;;;;;;;;;5028274;28;20021;-49
2023/03/05 03:50:46;;;;;;;20.10;9.48;;;;;;;;;;5028113;28;20585;-49
2023/03/05 03:53:13;;;;;;;26.42;10.80;;;;;;;;;;5027838;28;20128;-50
2023/03/05 03:55:38;;;;;;;22.02;10.15;;;;;;;;;;5028206;28;20052;-51
2023/03/05 03:58:05;;;;;;;28.00;11.68;;;;;;;;;;5028564;28;20056;-51
2023/03/05 04:00:30;;;;;;;23.73;11.13;;;;;;;;;;5027895;28;20037;-53
2023/03/05 04:02:55;;;;;;;24.42;10.38;;;;;;;;;;5041710;28;20033;-51
2023/03/05 04:05:21;;;;;;;18.45;9.55;;;;;;;;;;5028341;28;20028;-50
2023/03/05 04:07:46;;;;;;;26.88;10.68;;;;;;;;;;5027605;28;20025;-52
2023/03/05 04:10:11;;;;;;;20.05;9.07;;;;;;;;;;5028093;28;20029;-54
2023/03/05 04:12:37;;;;;;;18.52;10.27;;;;;;;;;;5027537;28;20400;-49
2023/03/05 04:15:02;;;;;;;22.02;9.68;;;;;;;;;;5027799;28;20587;-49
2023/03/05 04:17:28;;;;;;;22.73;10.93;;;;;;;;;;5028121;28;20113;-54
2023/03/05 04:19:53;;;;;;;23.05;10.55;;;;;;;;;;5027509;28;20033;-53
2023/03/05 04:22:18;;;;;;;25.50;9.80;;;;;;;;;;5028730;28;20021;-50
2023/03/05 04:24:43;;;;;;;19.95;9.68;;;;;;;;;;5027577;28;20063;-51
2023/03/05 04:27:09;;;;;;;30.15;9.52;;;;;;;;;;5027206;28;20032;-53
2023/03/05 04:29:34;;;;;;;34.63;10.48;;;;;;;;;;5027362;28;20144;-48
2023/03/05 04:32:00;;;;;;;22.65;9.10;;;;;;;;;;5027405;28;20112;-51
2023/03/05 04:34:25;;;;;;;21.80;9.80;;;;;;;;;;5027447;28;20033;-49
2023/03/05 04:36:50;;;;;;;17.80;9.25;;;;;;;;;;5027093;28;20072;-51
2023/03/05 04:39:16;;;;;;;21.60;9.50;;;;;;;;;;5027045;28;20030;-48
2023/03/05 04:41:41;;;;;;;24.95;9.55;;;;;;;;;;5027449;28;20025;-52
2023/03/05 04:44:07;;;;;;;19.33;9.05;;;;;;;;;;5027066;28;20033;-50
2023/03/05 04:46:32;;;;;;;21.65;9.73;;;;;;;;;;5026975;28;20017;-51
2023/03/05 04:48:57;;;;;;;22.38;9.90;;;;;;;;;;5026977;28;20028;-51
2023/03/05 04:51:23;;;;;;;22.10;8.63;;;;;;;;;;5027177;28;20025;-48
2023/03/05 04:53:48;;;;;;;17.73;8.55;;;;;;;;;;5023990;28;20064;-50
2023/03/05 04:56:14;;;;;;;20.63;9.55;;;;;;;;;;5027344;28;20026;-53
2023/03/05 04:58:39;;;;;;;27.55;10.35;;;;;;;;;;5026980;28;20057;-51
2023/03/05 05:01:05;;;;;;;21.48;9.23;;;;;;;;;;5026624;28;20036;-52
2023/03/05 05:03:31;;;;;;;27.50;9.77;;;;;;;;;;5026645;28;20033;-49
2023/03/05 05:05:57;;;;;;;24.13;9.40;;;;;;;;;;5026787;28;20424;-53
2023/03/05 05:08:23;;;;;;;21.60;9.50;;;;;;;;;;5026856;28;20053;-50
2023/03/05 05:10:57;;;;;;;19.52;9.30;;;;;;;;;;5026717;28;20055;-54
2023/03/05 05:13:23;;;;;;;24.23;9.70;;;;;;;;;;5026579;28;20029;-53
2023/03/05 05:15:49;;;;;;;18.90;9.23;;;;;;;;;;5025728;28;20024;-51
2023/03/05 05:18:14;;;;;;;34.63;12.02;;;;;;;;;;5026496;28;20116;-53
2023/03/05 05:20:39;;;;;;;21.52;11.02;;;;;;;;;;5026431;28;20435;-53
2023/03/05 05:23:04;;;;;;;25.08;10.27;;;;;;;;;;5026351;28;20033;-54
2023/03/05 05:25:30;;;;;;;24.83;11.13;;;;;;;;;;5026600;28;20017;-52
2023/03/05 05:27:55;;;;;;;28.85;9.77;;;;;;;;;;5026514;28;20493;-52
2023/03/05 05:30:20;;;;;;;19.75;9.80;;;;;;;;;;5026403;28;20029;-52
2023/03/05 05:32:45;;;;;;;23.70;10.25;;;;;;;;;;5025160;28;20175;-52
2023/03/05 05:35:11;;;;;;;24.85;10.35;;;;;;;;;;5026283;28;20029;-49
2023/03/05 05:37:36;;;;;;;25.27;10.50;;;;;;;;;;5026061;28;20029;-48
2023/03/05 05:40:04;;;;;;;26.42;10.38;;;;;;;;;;5025974;28;20025;-49
2023/03/05 05:42:29;;;;;;;21.45;9.57;;;;;;;;;;5042888;28;20671;-48
2023/03/05 05:44:55;;;;;;;19.48;9.43;;;;;;;;;;5043076;28;20041;-50
2023/03/05 05:47:20;;;;;;;21.65;9.48;;;;;;;;;;5042983;28;20171;-47
2023/03/05 05:49:45;;;;;;;23.95;8.98;;;;;;;;;;5009680;28;20040;-48
2023/03/05 05:52:11;;;;;;;20.20;10.02;;;;;;;;;;5042806;28;20107;-47
2023/03/05 05:54:36;;;;;;;22.50;9.93;;;;;;;;;;5042369;28;20056;-50
2023/03/05 05:57:02;;;;;;;26.60;10.25;;;;;;;;;;5042723;28;20075;-49
2023/03/05 05:59:27;;;;;;;22.75;9.48;;;;;;;;;;5042629;28;20063;-50
2023/03/05 06:01:52;;;;;;;18.67;9.18;;;;;;;;;;5042725;28;20459;-50
2023/03/05 06:04:17;;;;;;;23.45;8.57;;;;;;;;;;5042836;28;20025;-50
2023/03/05 06:06:43;;;;;;;20.55;8.57;;;;;;;;;;5042743;28;20114;-50
2023/03/05 06:09:08;;;;;;;23.52;8.05;;;;;;;;;;5042605;28;20487;-50
2023/03/05 06:11:33;;;;;;;18.48;8.70;;;;;;;;;;5042614;28;20021;-54
2023/03/05 06:14:01;;;;;;;25.15;9.50;;;;;;;;;;5042706;28;20109;-51
2023/03/05 06:16:26;;;;;;;21.17;8.73;;;;;;;;;;5043028;28;20021;-54
2023/03/05 06:18:52;;;;;;;26.00;10.13;;;;;;;;;;5041617;28;20029;-52
2023/03/05 06:21:18;;;;;;;23.98;9.20;;;;;;;;;;5025507;28;20531;-52
2023/03/05 06:23:44;;;;;;;24.95;8.82;;;;;;;;;;5025465;28;20044;-52
2023/03/05 06:26:11;;;;;;;23.55;10.05;;;;;;;;;;5027085;28;20013;-53
2023/03/05 06:28:36;;;;;;;18.92;9.32;;;;;;;;;;5029893;28;20063;-49
2023/03/05 06:31:06;;;;;;;21.13;9.60;;;;;;;;;;5029617;28;20053;-52
2023/03/05 06:33:32;;;;;;;24.13;10.07;;;;;;;;;;5029738;28;20515;-48
2023/03/05 06:35:57;;;;;;;25.10;8.68;;;;;;;;;;5029439;28;20101;-48
2023/03/05 06:38:23;;;;;;;18.90;9.18;;;;;;;;;;5029201;28;20025;-50
2023/03/05 06:40:48;;;;;;;21.20;8.95;;;;;;;;;;5029200;28;20265;-51
2023/03/05 06:43:13;;;;;;;24.98;10.52;;;;;;;;;;5028766;28;20057;-49
2023/03/05 06:45:39;;;;;;;29.13;11.32;;;;;;;;;;5028848;28;20017;-47
2023/03/05 06:48:04;;;;;;;63.15;19.98;;;;;;;;;;5029016;28;20064;-49
2023/03/05 06:50:29;;;;;;;46.08;16.38;;;;;;;;;;5029047;28;20064;-49
2023/03/05 06:52:55;;;;;;;54.20;17.30;;;;;;;;;;5028761;28;20143;-52
2023/03/05 06:55:20;;;;;;;41.08;15.15;;;;;;;;;;5028989;28;20029;-48
2023/03/05 06:57:46;;;;;;;32.15;12.93;;;;;;;;;;5029085;28;20057;-49
2023/03/05 07:00:11;;;;;;;27.15;12.85;;;;;;;;;;5028710;28;20021;-48
2023/03/05 07:02:37;;;;;;;22.75;11.48;;;;;;;;;;5028722;28;20385;-51
2023/03/05 07:05:03;;;;;;;24.38;9.77;;;;;;;;;;5028838;28;20256;-47
2023/03/05 07:07:28;;;;;;;21.58;9.73;;;;;;;;;;5028604;28;20036;-50
2023/03/05 07:09:53;;;;;;;21.90;9.73;;;;;;;;;;5028538;28;20373;-48
2023/03/05 07:12:18;;;;;;;26.02;11.57;;;;;;;;;;5026340;28;20063;-51
2023/03/05 07:14:44;;;;;;;20.20;9.75;;;;;;;;;;5028528;28;20061;-49
2023/03/05 07:17:09;;;;;;;24.30;9.52;;;;;;;;;;5028592;28;20144;-50
2023/03/05 07:19:34;;;;;;;24.52;10.02;;;;;;;;;;5028133;28;20029;-49
2023/03/05 07:22:00;;;;;;;20.98;9.40;;;;;;;;;;5028157;28;20064;-47
2023/03/05 07:24:28;;;;;;;19.02;9.13;;;;;;;;;;5028470;28;20412;-53
2023/03/05 07:26:54;;;;;;;23.10;8.95;;;;;;;;;;5028391;28;20017;-46
2023/03/05 07:29:20;;;;;;;19.23;8.65;;;;;;;;;;5028592;28;20113;-47
2023/03/05 07:31:45;;;;;;;27.95;9.23;;;;;;;;;;5028926;28;20112;-48
2023/03/05 07:34:10;;;;;;;19.55;8.93;;;;;;;;;;5029162;28;20112;-50
2023/03/05 07:36:36;;;;;;;22.00;9.43;;;;;;;;;;5028810;28;20460;-50
2023/03/05 07:39:03;;;;;;;17.90;9.25;;;;;;;;;;5027506;28;20029;-51
2023/03/05 07:41:29;;;;;;;20.65;9.02;;;;;;;;;;5027714;28;20017;-51
2023/03/05 07:43:54;;;;;;;27.30;9.20;;;;;;;;;;5027702;28;20120;-48
2023/03/05 07:46:21;;;;;;;22.40;10.15;;;;;;;;;;5028156;28;20013;-48
2023/03/05 07:48:47;;;;;;;22.20;9.82;;;;;;;;;;5028123;28;20218;-49
2023/03/05 07:51:14;;;;;;;25.83;10.57;;;;;;;;;;5028212;28;20219;-50
2023/03/05 07:53:40;;;;;;;23.52;9.30;;;;;;;;;;5027945;28;20497;-48
2023/03/05 07:56:06;;;;;;;21.35;9.40;;;;;;;;;;5028092;28;20466;-48
2023/03/05 07:58:31;;;;;;;22.77;9.43;;;;;;;;;;5027413;28;20109;-49
2023/03/05 08:00:56;;;;;;;23.30;10.15;;;;;;;;;;5027606;28;20021;-48
2023/03/05 08:03:22;;;;;;;22.15;10.93;;;;;;;;;;5027740;28;20036;-47
2023/03/05 08:05:47;;;;;;;28.80;10.98;;;;;;;;;;5027981;28;20535;-49
2023/03/05 08:08:13;;;;;;;21.92;9.73;;;;;;;;;;5027460;28;20025;-50
2023/03/05 08:10:38;;;;;;;28.20;10.50;;;;;;;;;;5027731;28;20108;-49
2023/03/05 08:13:03;;;;;;;21.40;10.15;;;;;;;;;;5024939;28;20037;-52
2023/03/05 08:15:30;;;;;;;21.90;10.15;;;;;;;;;;5027334;28;20044;-48
2023/03/05 08:17:55;;;;;;;27.58;9.95;;;;;;;;;;5027674;28;20615;-46
2023/03/05 08:20:21;;;;;;;22.75;9.98;;;;;;;;;;5027180;28;20292;-48
2023/03/05 08:22:46;;;;;;;22.23;10.57;;;;;;;;;;5027116;28;20025;-47
2023/03/05 08:25:11;;;;;;;24.23;9.82;;;;;;;;;;5027007;28;20029;-49
2023/03/05 08:27:40;;;;;;;25.10;10.38;;;;;;;;;;5026824;28;20024;-50
2023/03/05 08:30:06;;;;;;;21.73;9.95;;;;;;;;;;5041533;28;20029;-48
2023/03/05 08:32:31;;;;;;;21.08;9.77;;;;;;;;;;5027187;28;20516;-47
2023/03/05 08:35:01;;;;;;;20.23;9.05;;;;;;;;;;5027173;28;20029;-47
2023/03/05 08:37:27;;;;;;;18.52;8.57;;;;;;;;;;5026825;28;20021;-46
2023/03/05 08:39:52;;;;;;;23.02;9.80;;;;;;;;;;5027011;28;20022;-48
2023/03/05 08:42:17;;;;;;;22.00;10.18;;;;;;;;;;5026554;28;20104;-49
2023/03/05 08:44:43;;;;;;;25.02;9.98;;;;;;;;;;5026684;28;20037;-50
2023/03/05 08:47:08;;;;;;;23.50;9.43;;;;;;;;;;5026718;28;20025;-49
2023/03/05 08:49:33;;;;;;;19.33;10.25;;;;;;;;;;5026645;28;20076;-52
2023/03/05 08:51:58;;;;;;;19.42;9.30;;;;;;;;;;5026889;28;20017;-47
2023/03/05 08:54:24;;;;;;;27.88;11.20;;;;;;;;;;5026132;28;20860;-49
2023/03/05 08:56:49;;;;;;;25.13;9.82;;;;;;;;;;5026415;28;20337;-48
2023/03/05 08:59:14;;;;;;;25.52;11.00;;;;;;;;;;5026711;28;20025;-47
2023/03/05 09:01:40;;;;;;;26.48;11.95;;;;;;;;;;5026440;28;20087;-50
2023/03/05 09:04:05;;;;;;;20.70;10.45;;;;;;;;;;5026510;28;20151;-50
2023/03/05 09:06:30;;;;;;;25.98;11.15;;;;;;;;;;5026443;28;20376;-49
2023/03/05 09:08:56;;;;;;;23.35;10.40;;;;;;;;;;5026239;28;20014;-48
2023/03/05 09:11:21;;;;;;;18.75;9.93;;;;;;;;;;5026227;28;20057;-49
2023/03/05 09:13:46;;;;;;;22.42;10.82;;;;;;;;;;5026070;28;20393;-52
2023/03/05 09:16:13;;;;;;;19.45;9.82;;;;;;;;;;5026410;28;20116;-48
2023/03/05 09:18:39;;;;;;;21.38;10.50;;;;;;;;;;5025783;28;20025;-49
2023/03/05 09:21:06;;;;;;;24.63;9.90;;;;;;;;;;5024338;28;20421;-53
2023/03/05 09:23:31;;;;;;;19.52;9.85;;;;;;;;;;5026050;28;20488;-48
2023/03/05 09:25:56;;;;;;;23.63;11.10;;;;;;;;;;5025973;28;20021;-47
2023/03/05 09:28:21;;;;;;;22.90;9.93;;;;;;;;;;5023305;28;20508;-50
2023/03/05 09:30:47;;;;;;;22.17;9.80;;;;;;;;;;5025795;28;20029;-49
2023/03/05 09:33:12;;;;;;;24.38;10.93;;;;;;;;;;5025800;28;20022;-49
2023/03/05 09:35:37;;;;;;;27.23;10.15;;;;;;;;;;5026381;28;20025;-48
2023/03/05 09:38:03;;;;;;;22.75;10.35;;;;;;;;;;5026258;28;20048;-47
2023/03/05 09:40:47;;;;;;;23.92;11.98;;;;;;;;;;5025844;28;20105;-50
2023/03/05 09:43:12;;;;;;;32.03;13.60;;;;;;;;;;5025516;28;20025;-47
2023/03/05 09:45:52;;;;;;;26.23;11.40;;;;;;;;;;5025358;28;20078;-49
2023/03/05 09:48:21;;;;;;;32.60;11.90;;;;;;;;;;5026015;28;20737;-49
2023/03/05 09:50:49;;;;;;;32.00;11.63;;;;;;;;;;5025421;28;20024;-49
2023/03/05 09:53:27;;;;;;;28.95;11.38;;;;;;;;;;5023956;28;20061;-47
2023/03/05 09:55:54;;;;;;;26.35;12.40;;;;;;;;;;5025577;28;20029;-51
2023/03/05 09:58:28;;;;;;;25.02;11.75;;;;;;;;;;5025538;28;20029;-48
2023/03/05 10:00:56;;;;;;;23.85;10.80;;;;;;;;;;5039262;28;20033;-49
2023/03/05 10:03:25;;;;;;;22.40;11.05;;;;;;;;;;5025345;28;20033;-53
2023/03/05 10:06:00;;;;;;;21.38;10.75;;;;;;;;;;5025395;28;20025;-51
2023/03/05 10:08:30;;;;;;;23.48;11.00;;;;;;;;;;5025901;28;20431;-48
2023/03/05 10:10:56;;;;;;;22.70;9.77;;;;;;;;;;5025262;28;20022;-47
2023/03/05 10:13:23;;;;;;;20.85;10.93;;;;;;;;;;5025528;28;20401;-48
2023/03/05 10:15:59;;;;;;;21.83;10.70;;;;;;;;;;5025503;28;20546;-52
2023/03/05 10:18:42;;;;;;;23.70;10.60;;;;;;;;;;5025402;28;20109;-50
2023/03/05 10:21:20;;;;;;;23.75;10.80;;;;;;;;;;5024796;28;20143;-48
2023/03/05 10:24:04;;;;;;;21.95;9.70;;;;;;;;;;5024022;28;20043;-50
2023/03/05 10:26:48;;;;;;;21.17;10.32;;;;;;;;;;5025718;28;20052;-47
2023/03/05 10:29:32;;;;;;;23.23;10.27;;;;;;;;;;5025035;28;20021;-48
2023/03/05 10:32:04;;;;;;;20.60;9.77;;;;;;;;;;5025431;28;20026;-50
2023/03/05 10:34:43;;;;;;;18.88;9.50;;;;;;;;;;5025188;28;20431;-48
2023/03/05 10:37:09;;;;;;;22.80;9.82;;;;;;;;;;5024959;28;20088;-47
2023/03/05 10:39:53;;;;;;;22.23;10.27;;;;;;;;;;5025402;28;20038;-47
2023/03/05 10:42:24;;;;;;;22.30;9.98;;;;;;;;;;5025136;28;20030;-48
2023/03/05 10:44:55;;;;;;;21.45;11.00;;;;;;;;;;5024944;28;20049;-49
2023/03/05 10:47:39;;;;;;;22.83;8.93;;;;;;;;;;5024976;28;20473;-48
2023/03/05 10:50:14;;;;;;;21.52;9.35;;;;;;;;;;5025296;28;20042;-48
2023/03/05 10:52:45;;;;;;;28.40;9.70;;;;;;;;;;5024983;28;20021;-48
2023/03/05 10:55:12;;;;;;;18.73;7.97;;;;;;;;;;5025084;28;20033;-47
2023/03/05 10:57:37;;;;;;;15.05;8.38;;;;;;;;;;5005739;28;20124;-50
2023/03/05 11:00:15;;;;;;;16.70;8.57;;;;;;;;;;5025153;28;20497;-49
2023/03/05 11:02:57;;;;;;;18.08;8.80;;;;;;;;;;5024837;28;20033;-52
2023/03/05 11:05:35;;;;;;;14.30;7.18;;;;;;;;;;5024727;28;20034;-51
2023/03/05 11:08:00;;;;;;;15.98;7.07;;;;;;;;;;5024942;28;20397;-49
2023/03/05 11:10:25;;;;;;;14.38;7.63;;;;;;;;;;5038879;28;20022;-50
2023/03/05 11:12:52;;;;;;;14.80;7.70;;;;;;;;;;5026041;28;20322;-46
2023/03/05 11:15:28;;;;;;;17.52;7.57;;;;;;;;;;5028493;28;20103;-48
2023/03/05 11:18:14;;;;;;;21.30;8.85;;;;;;;;;;5028199;28;20031;-50
2023/03/05 11:20:40;;;;;;;15.23;8.10;;;;;;;;;;5028253;28;20108;-49
2023/03/05 11:23:13;;;;;;;13.98;6.63;;;;;;;;;;5028147;28;20180;-55
2023/03/05 11:25:51;;;;;;;18.90;7.88;;;;;;;;;;5028088;28;20033;-48
2023/03/05 11:28:18;;;;;;;19.20;8.07;;;;;;;;;;5028213;28;20492;-50
2023/03/05 11:30:53;;;;;;;16.80;7.63;;;;;;;;;;5027908;28;20028;-48
2023/03/05 11:33:21;;;;;;;14.75;7.15;;;;;;;;;;5028119;28;20021;-48
2023/03/05 11:35:47;;;;;;;11.32;6.55;;;;;;;;;;5029107;28;20034;-49
2023/03/05 11:38:23;;;;;;;13.70;6.95;;;;;;;;;;5027945;28;20021;-52
2023/03/05 11:40:50;;;;;;;12.48;7.22;;;;;;;;;;5042096;28;20102;-49
2023/03/05 11:43:19;;;;;;;12.93;7.82;;;;;;;;;;5027690;28;20029;-47
2023/03/05 11:45:44;;;;;;;;;;;;;;;;;;5028056;28;20440;-50
2023/03/05 11:48:09;;;;;;;12.40;7.40;;;;;;;;;;5042119;28;20003;-47
2023/03/05 11:50:36;;;;;;;16.70;8.15;;;;;;;;;;5028018;28;20410;-47
2023/03/05 11:53:09;;;;;;;15.77;8.40;;;;;;;;;;5027473;28;20057;-48
2023/03/05 11:55:42;;;;;;;14.90;7.90;;;;;;;;;;5027589;28;20116;-48
2023/03/05 11:58:26;;;;;;;17.17;9.43;;;;;;;;;;5027655;28;20096;-50
2023/03/05 12:00:52;;;;;;;21.63;8.52;;;;;;;;;;5026205;28;20416;-49
2023/03/05 12:03:19;;;;;;;14.43;8.43;;;;;;;;;;5027336;28;20022;-49
2023/03/05 12:05:46;;;;;;;17.13;8.82;;;;;;;;;;5027412;28;20029;-49
2023/03/05 12:08:14;;;;;;;15.57;8.82;;;;;;;;;;5027397;28;20017;-47
2023/03/05 12:10:39;;;;;;;13.98;7.75;;;;;;;;;;5027015;28;20028;-49
2023/03/05 12:13:17;;;;;;;13.40;7.55;;;;;;;;;;5027383;28;20033;-47
2023/03/05 12:16:02;;;;;;;14.30;8.38;;;;;;;;;;5027236;28;20021;-49
2023/03/05 12:18:36;;;;;;;15.57;9.05;;;;;;;;;;5027031;28;20021;-47
2023/03/05 12:21:02;;;;;;;17.15;8.52;;;;;;;;;;5027427;28;20514;-46
2023/03/05 12:23:27;;;;;;;15.82;8.85;;;;;;;;;;5026602;28;20101;-46
2023/03/05 12:25:56;;;;;;;15.38;8.40;;;;;;;;;;5026026;28;20409;-48
2023/03/05 12:28:27;;;;;;;17.13;8.80;;;;;;;;;;5027362;28;20028;-52
2023/03/05 12:30:54;;;;;;;16.15;9.23;;;;;;;;;;5027416;28;20026;-50
2023/03/05 12:33:31;;;;;;;16.15;8.15;;;;;;;;;;5024568;28;20026;-52
2023/03/05 12:36:15;;;;;;;17.98;9.18;;;;;;;;;;5027099;28;20059;-51
2023/03/05 12:38:41;;;;;;;16.77;8.65;;;;;;;;;;5027178;28;20029;-50
2023/03/05 12:41:21;;;;;;;18.42;8.68;;;;;;;;;;5026943;28;20026;-47
2023/03/05 12:44:05;;;;;;;16.55;8.80;;;;;;;;;;5026845;28;20127;-52
2023/03/05 12:46:37;;;;;;;15.20;8.50;;;;;;;;;;5026569;28;20033;-50
2023/03/05 12:49:27;;;;;;;17.52;9.23;;;;;;;;;;5026513;28;20113;-49
2023/03/05 12:51:53;;;;;;;17.10;7.90;;;;;;;;;;5003725;28;20034;-49
2023/03/05 12:54:22;;;;;;;12.82;7.60;;;;;;;;;;5003793;28;20096;-51
2023/03/05 12:56:47;;;;;;;18.98;9.48;;;;;;;;;;4971251;28;20410;-48
2023/03/05 12:59:15;;;;;;;18.08;9.05;;;;;;;;;;5003981;28;20033;-48
2023/03/05 13:01:44;;;;;;;21.23;10.38;;;;;;;;;;5003757;28;20198;-50
2023/03/05 13:04:18;;;;;;;19.63;9.25;;;;;;;;;;5003805;28;20049;-50
2023/03/05 13:06:44;;;;;;;23.45;9.82;;;;;;;;;;5003810;28;20042;-50
2023/03/05 13:09:30;;;;;;;18.75;9.55;;;;;;;;;;4986883;28;20034;-51
2023/03/05 13:11:56;;;;;;;19.60;8.65;;;;;;;;;;5003600;28;20037;-51
2023/03/05 13:14:21;;;;;;;16.90;8.18;;;;;;;;;;5003714;28;20087;-52
2023/03/05 13:16:47;;;;;;;15.10;8.10;;;;;;;;;;5003928;28;20124;-52
2023/03/05 13:19:16;;;;;;;15.20;8.30;;;;;;;;;;5003153;28;20103;-52
2023/03/05 13:21:41;;;;;;;17.35;8.80;;;;;;;;;;5003294;28;20504;-54
2023/03/05 13:24:17;;;;;;;18.20;9.20;;;;;;;;;;5003726;28;20038;-52
2023/03/05 13:26:43;;;;;;;19.88;8.23;;;;;;;;;;5003449;28;20688;-53
2023/03/05 13:29:13;;;;;;;16.70;8.60;;;;;;;;;;4991661;28;20413;-50
2023/03/05 13:31:50;;;;;;;20.83;8.85;;;;;;;;;;5025871;28;20308;-51
2023/03/05 13:34:26;;;;;;;18.88;8.60;;;;;;;;;;5026029;28;20029;-51
2023/03/05 13:36:59;;;;;;;19.80;8.27;;;;;;;;;;5025339;28;20064;-53
2023/03/05 13:39:39;;;;;;;18.40;8.23;;;;;;;;;;5026028;28;20021;-50
2023/03/05 13:42:06;;;;;;;15.90;9.38;;;;;;;;;;5025694;28;20508;-48
2023/03/05 13:44:32;;;;;;;15.25;8.65;;;;;;;;;;5023096;28;20041;-49
2023/03/05 13:47:17;;;;;;;20.92;10.00;;;;;;;;;;5025323;28;20025;-50
2023/03/05 13:49:44;;;;;;;12.95;7.05;;;;;;;;;;5039623;28;20113;-52
2023/03/05 13:52:10;;;;;;;15.30;7.30;;;;;;;;;;5025251;28;20083;-50
2023/03/05 13:54:37;;;;;;;13.77;7.07;;;;;;;;;;5025499;28;20065;-49
2023/03/05 13:57:05;;;;;;;11.25;6.53;;;;;;;;;;5025672;28;20029;-47
2023/03/05 13:59:32;;;;;;;15.15;7.00;;;;;;;;;;5025473;28;20444;-52
2023/03/05 14:01:59;;;;;;;12.35;6.88;;;;;;;;;;5025196;28;20049;-50
2023/03/05 14:04:27;;;;;;;12.88;7.28;;;;;;;;;;5025393;28;20686;-52
2023/03/05 14:07:02;;;;;;;11.15;6.18;;;;;;;;;;5025108;28;20075;-51
2023/03/05 14:09:48;;;;;;;14.77;6.28;;;;;;;;;;5023972;28;20022;-51
2023/03/05 14:12:22;;;;;;;12.85;6.40;;;;;;;;;;5002663;28;20038;-50
2023/03/05 14:14:48;;;;;;;13.68;7.10;;;;;;;;;;5002705;28;20493;-51
2023/03/05 14:17:31;;;;;;;15.90;7.63;;;;;;;;;;5002657;28;20061;-52
2023/03/05 14:20:08;;;;;;;13.10;6.88;;;;;;;;;;5002300;28;20034;-52
2023/03/05 14:22:35;;;;;;;13.38;6.88;;;;;;;;;;5002810;28;20062;-55
2023/03/05 14:25:41;;;;;;;15.93;7.07;;;;;;;;;;4982743;28;20446;-54
2023/03/05 14:28:15;;;;;;;13.45;7.15;;;;;;;;;;4982981;28;20038;-53
2023/03/05 14:30:45;;;;;;;12.60;7.07;;;;;;;;;;4983010;28;20030;-51